Simonton, Texas
Current Conditions -  °F | °C
As of 7:15 AM on Sunday 21 Dec 2014 (Local Time) from KTME Reporting Station
Overcast Overcast  
Wind Chill: 46°   Ceiling: 2200
Heat Index: 48°   Visibility: 10mi
Dew Point: 46°   Wind: 6mph
Humidity: 93%   Direction: 60°ENE
Pressure: 30.15"   Gusts: NA
Location:  29.68°N, 95.98°W
Report Text: KTME 211315Z AUTO 06005KT 10SM OVC022 09/08 A3015 RMK AO2
Loading
Personal Weather Stations






























Interactive Weather Map New forecast layout! Learn more

10-Day Weather Forecast

Advertisements
Track Severe Weather on mobile